createdAt,value
2023-02-22T00:00:18.089Z,17.79
2023-02-22T00:02:56.237Z,18.86
2023-02-22T00:05:28.830Z,19.49
2023-02-22T00:08:00.378Z,17.70
2023-02-22T00:10:32.046Z,18.18
2023-02-22T00:13:05.981Z,18.21
2023-02-22T00:15:37.591Z,18.32
2023-02-22T00:18:12.012Z,18.14
2023-02-22T00:20:43.599Z,17.44
2023-02-22T00:23:18.546Z,18.78
2023-02-22T00:25:50.802Z,17.31
2023-02-22T00:28:22.913Z,17.72
2023-02-22T00:30:54.572Z,18.49
2023-02-22T00:33:26.185Z,17.56
2023-02-22T00:35:58.610Z,17.72
2023-02-22T00:38:35.810Z,16.95
2023-02-22T00:41:08.115Z,17.50
2023-02-22T00:43:39.662Z,16.89
2023-02-22T00:46:13.720Z,16.67
2023-02-22T00:48:45.367Z,16.24
2023-02-22T00:51:17.282Z,16.61
2023-02-22T00:53:49.122Z,15.88
2023-02-22T00:56:20.893Z,15.69
2023-02-22T00:58:52.527Z,16.71
2023-02-22T01:01:24.419Z,16.39
2023-02-22T01:03:56.127Z,16.22
2023-02-22T01:06:28.144Z,15.56
2023-02-22T01:08:59.963Z,15.42
2023-02-22T01:11:31.638Z,15.33
2023-02-22T01:14:03.298Z,15.93
2023-02-22T01:16:35.631Z,15.01
2023-02-22T01:19:07.394Z,16.11
2023-02-22T01:21:40.734Z,16.02
2023-02-22T01:24:12.613Z,16.75
2023-02-22T01:26:50.641Z,16.02
2023-02-22T01:29:22.348Z,15.41
2023-02-22T01:31:56.359Z,14.94
2023-02-22T01:34:28.675Z,14.62
2023-02-22T01:37:00.796Z,14.03
2023-02-22T01:39:33.047Z,14.76
2023-02-22T01:42:04.676Z,14.46
2023-02-22T01:44:38.865Z,14.89
2023-02-22T01:47:10.425Z,14.44
2023-02-22T01:49:47.700Z,15.80
2023-02-22T01:52:21.514Z,14.88
2023-02-22T01:54:58.592Z,14.91
2023-02-22T01:57:36.689Z,15.05
2023-02-22T02:00:13.591Z,15.67
2023-02-22T02:02:51.022Z,15.54
2023-02-22T02:05:29.151Z,16.41
2023-02-22T02:08:13.322Z,15.96
2023-02-22T02:10:48.542Z,16.58
2023-02-22T02:13:20.568Z,16.92
2023-02-22T02:15:56.847Z,15.93
2023-02-22T02:18:29.782Z,16.00
2023-02-22T02:21:39.182Z,15.31
2023-02-22T02:24:32.723Z,15.59
2023-02-22T02:27:27.485Z,16.04
2023-02-22T02:30:24.010Z,17.54
2023-02-22T02:33:01.491Z,16.02
2023-02-22T02:35:45.290Z,16.32
2023-02-22T02:38:38.506Z,16.25
2023-02-22T02:41:18.624Z,16.79
2023-02-22T02:44:07.900Z,16.89
2023-02-22T02:46:58.149Z,16.31
2023-02-22T02:49:51.601Z,16.92
2023-02-22T02:52:27.286Z,17.07
2023-02-22T02:55:01.735Z,16.25
2023-02-22T02:57:33.413Z,17.12
2023-02-22T03:00:07.811Z,16.82
2023-02-22T03:03:02.326Z,16.98
2023-02-22T03:05:52.446Z,17.43
2023-02-22T03:08:47.717Z,16.97
2023-02-22T03:11:30.518Z,16.90
2023-02-22T03:14:22.311Z,16.40
2023-02-22T03:16:57.040Z,17.48
2023-02-22T03:20:03.967Z,16.62
2023-02-22T03:22:55.635Z,17.08
2023-02-22T03:25:43.351Z,17.65
2023-02-22T03:28:19.698Z,17.25
2023-02-22T03:31:06.035Z,18.18
2023-02-22T03:33:48.873Z,17.15
2023-02-22T03:36:34.002Z,17.25
2023-02-22T03:39:13.693Z,16.83
2023-02-22T03:41:49.679Z,16.64
2023-02-22T03:44:27.536Z,17.35
2023-02-22T03:47:07.385Z,18.13
2023-02-22T03:49:53.629Z,17.33
2023-02-22T03:52:25.659Z,17.72
2023-02-22T03:54:57.526Z,17.66
2023-02-22T03:57:35.429Z,17.61
2023-02-22T04:00:12.361Z,16.77
2023-02-22T04:02:49.351Z,17.07
2023-02-22T04:05:27.161Z,17.80
2023-02-22T04:07:58.928Z,17.25
2023-02-22T04:10:32.379Z,18.21
2023-02-22T04:13:05.499Z,18.39
2023-02-22T04:15:38.408Z,18.22
2023-02-22T04:18:13.958Z,17.84
2023-02-22T04:20:46.148Z,18.41
2023-02-22T04:23:25.905Z,17.17
2023-02-22T04:25:57.846Z,17.57
2023-02-22T04:28:29.511Z,16.58
2023-02-22T04:31:11.884Z,16.74
2023-02-22T04:33:44.411Z,17.20
2023-02-22T04:36:19.708Z,17.10
2023-02-22T04:38:51.666Z,17.02
2023-02-22T04:41:25.342Z,17.88
2023-02-22T04:43:57.506Z,17.10
2023-02-22T04:46:30.900Z,17.86
2023-02-22T04:49:02.907Z,16.13
2023-02-22T04:51:37.423Z,17.83
2023-02-22T04:54:14.801Z,18.52
2023-02-22T04:56:50.027Z,18.33
2023-02-22T04:59:21.688Z,18.60
2023-02-22T05:01:59.598Z,19.01
2023-02-22T05:04:31.173Z,18.07
2023-02-22T05:07:02.824Z,18.04
2023-02-22T05:09:34.462Z,19.15
2023-02-22T05:12:06.344Z,18.64
2023-02-22T05:14:37.977Z,17.88
2023-02-22T05:17:09.644Z,19.03
2023-02-22T05:19:41.254Z,19.05
2023-02-22T05:22:12.908Z,20.22
2023-02-22T05:24:44.530Z,19.19
2023-02-22T05:27:16.127Z,19.62
2023-02-22T05:29:47.649Z,19.49
2023-02-22T05:32:19.332Z,19.48
2023-02-22T05:34:50.959Z,19.76
2023-02-22T05:37:22.571Z,20.20
2023-02-22T05:39:54.190Z,19.97
2023-02-22T05:42:25.733Z,21.12
2023-02-22T05:44:57.299Z,21.88
2023-02-22T05:47:29.099Z,21.87
2023-02-22T05:50:00.768Z,21.18
2023-02-22T05:52:32.436Z,21.36
2023-02-22T05:55:05.795Z,21.63
2023-02-22T05:57:37.383Z,22.70
2023-02-22T06:00:10.682Z,21.41
2023-02-22T06:02:45.396Z,20.71
2023-02-22T06:05:17.042Z,22.05
2023-02-22T06:07:48.830Z,23.21
2023-02-22T06:10:21.142Z,22.45
2023-02-22T06:12:54.034Z,22.90
2023-02-22T06:15:27.383Z,22.33
2023-02-22T06:17:59.252Z,22.08
2023-02-22T06:20:31.241Z,23.17
2023-02-22T06:23:03.005Z,21.66
2023-02-22T06:25:34.648Z,21.76
2023-02-22T06:28:06.262Z,21.12
2023-02-22T06:30:37.969Z,21.09
2023-02-22T06:33:10.240Z,21.93
2023-02-22T06:35:41.878Z,21.88
2023-02-22T06:38:25.300Z,22.16
2023-02-22T06:40:57.283Z,23.21
2023-02-22T06:43:28.904Z,21.93
2023-02-22T06:46:00.495Z,22.03
2023-02-22T06:48:32.300Z,21.24
2023-02-22T06:51:04.531Z,22.29
2023-02-22T06:53:36.376Z,22.31
2023-02-22T06:56:08.053Z,22.73
2023-02-22T06:58:40.119Z,22.05
2023-02-22T07:01:12.294Z,22.66
2023-02-22T07:03:44.377Z,22.70
2023-02-22T07:06:16.375Z,23.46
2023-02-22T07:08:48.857Z,23.28
2023-02-22T07:11:20.540Z,21.25
2023-02-22T07:13:52.189Z,22.06
2023-02-22T07:16:23.777Z,21.24
2023-02-22T07:18:55.428Z,21.53
2023-02-22T07:21:29.112Z,20.71
2023-02-22T07:24:00.759Z,21.69
2023-02-22T07:26:38.886Z,21.95
2023-02-22T07:29:10.462Z,22.03
2023-02-22T07:31:42.035Z,21.12
2023-02-22T07:34:13.867Z,21.58
2023-02-22T07:36:45.638Z,21.40
2023-02-22T07:39:17.302Z,21.15
2023-02-22T07:41:48.922Z,21.13
2023-02-22T07:44:27.565Z,21.41
2023-02-22T07:46:59.228Z,21.60
2023-02-22T07:49:30.882Z,21.18
2023-02-22T07:52:02.746Z,20.64
2023-02-22T07:54:34.339Z,21.61
2023-02-22T07:57:05.928Z,21.67
2023-02-22T07:59:37.490Z,21.59
2023-02-22T08:02:17.086Z,21.21
2023-02-22T08:04:48.688Z,21.67
2023-02-22T08:07:20.280Z,20.67
2023-02-22T08:09:51.921Z,20.56
2023-02-22T08:12:23.506Z,20.55
2023-02-22T08:14:55.058Z,20.80
2023-02-22T08:17:26.606Z,20.60
2023-02-22T08:19:58.164Z,20.29
2023-02-22T08:22:29.726Z,20.14
2023-02-22T08:25:01.290Z,20.15
2023-02-22T08:27:32.873Z,20.81
2023-02-22T08:30:05.537Z,20.69
2023-02-22T08:32:37.160Z,21.47
2023-02-22T08:35:09.260Z,20.83
2023-02-22T08:37:44.777Z,20.13
2023-02-22T08:40:19.260Z,20.98
2023-02-22T08:42:51.113Z,20.26
2023-02-22T08:45:23.188Z,19.50
2023-02-22T08:47:55.133Z,18.62
2023-02-22T08:50:29.893Z,18.81
2023-02-22T08:53:03.598Z,19.99
2023-02-22T08:55:38.567Z,21.08
2023-02-22T08:58:10.768Z,19.50
2023-02-22T09:00:42.943Z,18.95
2023-02-22T09:03:15.568Z,18.73
2023-02-22T09:05:47.301Z,19.01
2023-02-22T09:08:19.679Z,19.46
2023-02-22T09:10:52.013Z,19.70
2023-02-22T09:13:23.548Z,19.01
2023-02-22T09:15:55.179Z,19.96
2023-02-22T09:18:39.033Z,19.55
2023-02-22T09:21:15.333Z,19.30
2023-02-22T09:23:47.964Z,19.66
2023-02-22T09:26:19.570Z,19.72
2023-02-22T09:28:51.219Z,18.34
2023-02-22T09:31:23.108Z,18.81
2023-02-22T09:33:54.929Z,18.73
2023-02-22T09:36:26.529Z,19.79
2023-02-22T09:38:58.121Z,19.78
2023-02-22T09:41:54.377Z,20.58
2023-02-22T09:45:12.290Z,19.88
2023-02-22T09:47:50.553Z,19.96
2023-02-22T09:50:30.318Z,19.60
2023-02-22T09:53:20.228Z,19.70
2023-02-22T09:55:54.042Z,19.81
2023-02-22T09:58:40.748Z,20.13
2023-02-22T10:01:16.605Z,19.97
2023-02-22T10:04:01.238Z,19.67
2023-02-22T10:06:35.389Z,19.54
2023-02-22T10:09:06.954Z,20.05
2023-02-22T10:12:10.089Z,20.11
2023-02-22T10:14:44.720Z,20.21
2023-02-22T10:17:39.732Z,20.50
2023-02-22T10:20:23.969Z,21.96
2023-02-22T10:23:32.143Z,21.85
2023-02-22T10:26:23.098Z,20.89
2023-02-22T10:29:02.805Z,21.16
2023-02-22T10:31:43.977Z,21.95
2023-02-22T10:34:26.245Z,22.86
2023-02-22T10:37:24.715Z,22.48
2023-02-22T10:40:18.400Z,23.73
2023-02-22T10:42:50.374Z,23.12
2023-02-22T10:45:26.820Z,23.01
2023-02-22T10:48:05.581Z,24.00
2023-02-22T10:50:42.133Z,24.05
2023-02-22T10:53:14.779Z,24.79
2023-02-22T10:56:06.601Z,23.96
2023-02-22T10:59:03.132Z,25.72
2023-02-22T11:01:39.491Z,26.13
2023-02-22T11:04:20.738Z,25.73
2023-02-22T11:07:01.289Z,26.09
2023-02-22T11:09:49.633Z,27.87
2023-02-22T11:12:32.124Z,27.24
2023-02-22T11:15:28.414Z,27.84
2023-02-22T11:18:00.124Z,27.97
2023-02-22T11:20:39.280Z,27.56
2023-02-22T11:23:11.030Z,27.14
2023-02-22T11:25:43.120Z,27.57
2023-02-22T11:28:28.004Z,28.60
2023-02-22T11:31:13.917Z,27.54
2023-02-22T11:34:00.127Z,28.66
2023-02-22T11:36:37.920Z,28.56
2023-02-22T11:39:24.759Z,27.73
2023-02-22T11:41:56.736Z,29.23
2023-02-22T11:44:31.612Z,29.10
2023-02-22T11:47:03.593Z,30.11
2023-02-22T11:49:44.071Z,28.87
2023-02-22T11:52:39.295Z,28.79
2023-02-22T11:55:36.341Z,30.13
2023-02-22T11:58:48.406Z,29.38
2023-02-22T12:01:37.266Z,29.87
2023-02-22T12:04:31.926Z,28.74
2023-02-22T12:07:18.666Z,28.84
2023-02-22T12:10:00.644Z,28.61
2023-02-22T12:12:41.413Z,28.72
2023-02-22T12:15:28.908Z,29.05
2023-02-22T12:18:09.983Z,30.41
2023-02-22T12:20:51.373Z,30.42
2023-02-22T12:23:45.821Z,30.53
2023-02-22T12:26:29.515Z,30.90
2023-02-22T12:29:11.398Z,30.26
2023-02-22T12:31:49.838Z,29.10
2023-02-22T12:34:27.549Z,31.07
2023-02-22T12:37:23.958Z,28.36
2023-02-22T12:40:06.004Z,29.54
2023-02-22T12:42:55.642Z,31.08
2023-02-22T12:45:41.637Z,30.32
2023-02-22T12:48:15.913Z,29.30
2023-02-22T12:50:55.448Z,29.66
2023-02-22T12:53:44.956Z,29.67
2023-02-22T12:56:32.684Z,29.34
2023-02-22T12:59:20.763Z,30.28
2023-02-22T13:02:00.561Z,28.76
2023-02-22T13:04:32.153Z,28.25
2023-02-22T13:07:29.795Z,27.76
2023-02-22T13:10:36.583Z,26.81
2023-02-22T13:13:51.001Z,24.77
2023-02-22T13:16:51.685Z,23.04
2023-02-22T13:19:42.937Z,24.02
2023-02-22T13:22:34.966Z,23.67
2023-02-22T13:25:27.717Z,22.50
2023-02-22T13:28:17.363Z,22.57
2023-02-22T13:31:14.930Z,23.45
2023-02-22T13:34:09.866Z,23.31
2023-02-22T13:36:59.541Z,25.03
2023-02-22T13:39:49.478Z,31.83
2023-02-22T13:42:47.346Z,35.51
2023-02-22T13:45:40.673Z,35.04
2023-02-22T13:48:32.329Z,30.87
2023-02-22T13:51:13.686Z,27.22
2023-02-22T13:53:55.254Z,26.37
2023-02-22T13:56:28.720Z,27.37
2023-02-22T13:59:03.534Z,26.40
2023-02-22T14:01:48.164Z,25.75
2023-02-22T14:04:29.334Z,24.47
2023-02-22T14:07:21.838Z,24.71
2023-02-22T14:09:56.220Z,22.42
2023-02-22T14:12:30.568Z,22.62
2023-02-22T14:15:26.534Z,20.59
2023-02-22T14:18:03.453Z,19.91
2023-02-22T14:20:38.006Z,20.90
2023-02-22T14:23:33.997Z,20.94
2023-02-22T14:26:14.932Z,21.62
2023-02-22T14:29:00.648Z,20.91
2023-02-22T14:31:54.839Z,20.28
2023-02-22T14:34:48.030Z,21.02
2023-02-22T14:37:35.807Z,20.99
2023-02-22T14:40:28.426Z,21.53
2023-02-22T14:43:20.399Z,20.74
2023-02-22T14:45:55.650Z,21.65
2023-02-22T14:48:41.278Z,21.85
2023-02-22T14:51:22.291Z,21.73
2023-02-22T14:54:00.106Z,20.41
2023-02-22T14:56:38.718Z,21.21
2023-02-22T14:59:18.991Z,20.34
2023-02-22T15:02:11.957Z,20.76
2023-02-22T15:04:54.992Z,20.64
2023-02-22T15:07:30.110Z,21.93
2023-02-22T15:10:06.650Z,22.87
2023-02-22T15:12:38.293Z,23.01
2023-02-22T15:15:18.626Z,23.60
2023-02-22T15:17:58.466Z,25.82
2023-02-22T15:20:30.547Z,26.74
2023-02-22T15:23:02.339Z,28.49
2023-02-22T15:25:34.163Z,29.55
2023-02-22T15:28:06.100Z,28.48
2023-02-22T15:30:37.773Z,28.89
2023-02-22T15:33:19.602Z,30.65
2023-02-22T15:35:57.770Z,29.73
2023-02-22T15:38:30.972Z,29.58
2023-02-22T15:41:05.829Z,28.85
2023-02-22T15:43:37.384Z,28.87
2023-02-22T15:46:09.514Z,29.30
2023-02-22T15:48:41.117Z,29.99
2023-02-22T15:51:15.300Z,29.37
2023-02-22T15:53:50.895Z,28.70
2023-02-22T15:56:29.257Z,28.98
2023-02-22T15:59:09.202Z,28.57
2023-02-22T16:01:45.367Z,29.54
2023-02-22T16:04:23.737Z,29.25
2023-02-22T16:07:08.534Z,30.92
2023-02-22T16:09:46.666Z,28.81
2023-02-22T16:12:21.232Z,28.79
2023-02-22T16:14:52.843Z,29.37
2023-02-22T16:17:44.572Z,29.02
2023-02-22T16:20:21.203Z,28.88
2023-02-22T16:22:57.980Z,28.24
2023-02-22T16:25:33.612Z,27.94
2023-02-22T16:28:26.847Z,30.21
2023-02-22T16:30:58.842Z,28.99
2023-02-22T16:33:30.506Z,29.66
2023-02-22T16:36:06.951Z,27.64
2023-02-22T16:38:38.806Z,28.13
2023-02-22T16:41:10.508Z,27.98
2023-02-22T16:43:43.310Z,28.84
2023-02-22T16:46:15.077Z,27.83
2023-02-22T16:48:46.829Z,27.93
2023-02-22T16:51:26.649Z,28.72
2023-02-22T16:53:58.494Z,28.70
2023-02-22T16:56:31.190Z,27.05
2023-02-22T16:59:11.213Z,28.61
2023-02-22T17:01:43.457Z,28.23
2023-02-22T17:04:26.074Z,27.73
2023-02-22T17:06:57.690Z,26.88
2023-02-22T17:09:29.288Z,27.97
2023-02-22T17:12:02.365Z,28.73
2023-02-22T17:14:35.936Z,30.11
2023-02-22T17:17:11.875Z,30.37
2023-02-22T17:19:43.715Z,30.52
2023-02-22T17:22:21.430Z,30.08
2023-02-22T17:24:53.113Z,29.09
2023-02-22T17:27:24.638Z,28.09
2023-02-22T17:29:56.221Z,28.81
2023-02-22T17:32:27.950Z,28.10
2023-02-22T17:35:02.405Z,29.77
2023-02-22T17:37:34.124Z,29.56
2023-02-22T17:40:06.315Z,29.29
2023-02-22T17:42:37.917Z,30.25
2023-02-22T17:45:12.013Z,29.27
2023-02-22T17:47:44.100Z,30.06
2023-02-22T17:50:16.537Z,30.39
2023-02-22T17:52:49.449Z,28.91
2023-02-22T17:55:22.173Z,29.16
2023-02-22T17:57:57.323Z,29.63
2023-02-22T18:00:34.768Z,28.83
2023-02-22T18:03:09.839Z,31.21
2023-02-22T18:05:55.659Z,28.80
2023-02-22T18:08:29.599Z,29.38
2023-02-22T18:11:04.228Z,29.87
2023-02-22T18:13:35.970Z,29.59
2023-02-22T18:16:10.980Z,28.75
2023-02-22T18:18:42.636Z,29.70
2023-02-22T18:21:14.398Z,30.10
2023-02-22T18:23:46.156Z,30.94
2023-02-22T18:26:20.328Z,32.42
2023-02-22T18:28:52.524Z,33.42
2023-02-22T18:31:24.137Z,33.52
2023-02-22T18:33:56.312Z,32.99
2023-02-22T18:36:28.471Z,30.36
2023-02-22T18:39:00.482Z,33.00
2023-02-22T18:41:32.159Z,37.02
2023-02-22T18:44:05.033Z,34.43
2023-02-22T18:46:36.884Z,31.88
2023-02-22T18:49:11.879Z,32.60
2023-02-22T18:51:43.531Z,33.49
2023-02-22T18:54:15.241Z,33.23
2023-02-22T18:56:46.957Z,33.56
2023-02-22T18:59:18.696Z,33.98
2023-02-22T19:01:50.554Z,34.87
2023-02-22T19:04:22.134Z,33.49
2023-02-22T19:06:55.186Z,32.36
2023-02-22T19:09:26.881Z,33.56
2023-02-22T19:11:58.511Z,32.04
2023-02-22T19:14:30.195Z,32.16
2023-02-22T19:17:02.015Z,32.72
2023-02-22T19:19:34.813Z,33.86
2023-02-22T19:22:06.477Z,36.44
2023-02-22T19:24:38.117Z,36.04
2023-02-22T19:27:11.102Z,35.05
2023-02-22T19:29:42.783Z,35.76
2023-02-22T19:32:14.445Z,35.19
2023-02-22T19:34:46.883Z,34.25
2023-02-22T19:37:19.231Z,34.96
2023-02-22T19:39:50.894Z,33.92
2023-02-22T19:42:22.629Z,32.96
2023-02-22T19:44:54.204Z,34.38
2023-02-22T19:47:25.931Z,35.24
2023-02-22T19:49:59.250Z,36.62
2023-02-22T19:52:31.900Z,37.99
2023-02-22T19:55:03.570Z,35.87
2023-02-22T19:57:35.213Z,35.70
2023-02-22T20:00:07.575Z,35.44
2023-02-22T20:02:42.861Z,35.30
2023-02-22T20:05:14.420Z,36.10
2023-02-22T20:07:46.092Z,35.40
2023-02-22T20:10:17.989Z,35.53
2023-02-22T20:12:49.853Z,35.36
2023-02-22T20:15:21.684Z,35.88
2023-02-22T20:17:54.571Z,39.52
2023-02-22T20:20:26.653Z,39.30
2023-02-22T20:22:58.861Z,37.10
2023-02-22T20:25:30.581Z,37.18
2023-02-22T20:28:02.403Z,36.20
2023-02-22T20:30:37.146Z,36.62
2023-02-22T20:33:09.012Z,37.81
2023-02-22T20:35:40.877Z,37.48
2023-02-22T20:38:13.918Z,37.50
2023-02-22T20:40:45.533Z,39.64
2023-02-22T20:43:17.120Z,35.78
2023-02-22T20:45:48.700Z,36.41
2023-02-22T20:48:20.254Z,37.40
2023-02-22T20:50:51.869Z,36.50
2023-02-22T20:53:23.917Z,35.81
2023-02-22T20:55:55.489Z,36.33
2023-02-22T20:58:27.496Z,37.47
2023-02-22T21:01:07.891Z,37.56
2023-02-22T21:03:41.144Z,36.83
2023-02-22T21:06:15.190Z,35.93
2023-02-22T21:08:54.858Z,36.87
2023-02-22T21:11:29.596Z,35.72
2023-02-22T21:14:02.405Z,36.98
2023-02-22T21:16:36.774Z,37.29
2023-02-22T21:19:11.942Z,35.80
2023-02-22T21:21:43.586Z,36.27
2023-02-22T21:24:15.434Z,35.10
2023-02-22T21:26:47.064Z,34.91
2023-02-22T21:29:19.445Z,35.29
2023-02-22T21:31:51.170Z,33.78
2023-02-22T21:34:22.802Z,35.53
2023-02-22T21:36:54.517Z,36.10
2023-02-22T21:39:26.196Z,35.36
2023-02-22T21:41:57.902Z,36.36
2023-02-22T21:44:29.609Z,37.91
2023-02-22T21:47:01.265Z,38.56
2023-02-22T21:49:32.993Z,39.21
2023-02-22T21:52:04.707Z,38.73
2023-02-22T21:54:36.452Z,40.22
2023-02-22T21:57:08.996Z,39.20
2023-02-22T21:59:40.548Z,38.74
2023-02-22T22:02:12.150Z,41.45
2023-02-22T22:04:43.740Z,36.95
2023-02-22T22:07:15.335Z,36.95
2023-02-22T22:09:46.906Z,39.85
2023-02-22T22:12:18.864Z,39.41
2023-02-22T22:14:52.600Z,39.73
2023-02-22T22:17:24.237Z,41.76
2023-02-22T22:19:55.803Z,44.89
2023-02-22T22:22:27.379Z,43.20
2023-02-22T22:24:59.000Z,43.29
2023-02-22T22:27:30.729Z,43.94
2023-02-22T22:30:02.302Z,43.06
2023-02-22T22:32:34.389Z,41.35
2023-02-22T22:35:08.690Z,41.73
2023-02-22T22:37:42.368Z,42.16
2023-02-22T22:40:14.238Z,41.14
2023-02-22T22:42:46.370Z,40.61
2023-02-22T22:45:17.993Z,39.70
2023-02-22T22:47:49.572Z,39.71
2023-02-22T22:50:21.172Z,39.88
2023-02-22T22:52:53.649Z,39.64
2023-02-22T22:55:25.305Z,42.15
2023-02-22T22:57:56.884Z,40.37
2023-02-22T23:00:28.462Z,39.79
2023-02-22T23:03:00.603Z,40.02
2023-02-22T23:05:40.089Z,38.66
2023-02-22T23:08:11.722Z,40.11
2023-02-22T23:10:43.291Z,40.02
2023-02-22T23:13:15.021Z,38.68
2023-02-22T23:15:46.858Z,39.02
2023-02-22T23:18:18.508Z,38.54
2023-02-22T23:20:50.189Z,36.56
2023-02-22T23:23:24.110Z,38.65
2023-02-22T23:26:08.311Z,38.61
2023-02-22T23:28:41.329Z,41.11
2023-02-22T23:31:16.296Z,39.32
2023-02-22T23:33:47.998Z,41.36
2023-02-22T23:36:20.245Z,40.39
2023-02-22T23:38:51.884Z,39.75
2023-02-22T23:41:23.473Z,40.78
2023-02-22T23:43:55.656Z,40.48
2023-02-22T23:46:27.345Z,40.32
2023-02-22T23:48:58.981Z,41.40
2023-02-22T23:51:31.540Z,41.73
2023-02-22T23:54:03.185Z,39.42
2023-02-22T23:56:36.987Z,41.33
2023-02-22T23:59:10.737Z,41.80
